createdAt,value
2023-02-13T00:01:42.838Z,9.74
2023-02-13T00:04:18.830Z,9.95
2023-02-13T00:07:04.216Z,10.51
2023-02-13T00:09:31.740Z,9.81
2023-02-13T00:11:58.744Z,10.56
2023-02-13T00:14:31.808Z,9.44
2023-02-13T00:16:58.947Z,9.44
2023-02-13T00:19:26.050Z,9.33
2023-02-13T00:21:53.081Z,9.25
2023-02-13T00:24:20.192Z,9.59
2023-02-13T00:26:47.864Z,9.66
2023-02-13T00:29:15.595Z,9.82
2023-02-13T00:31:42.743Z,9.36
2023-02-13T00:34:15.423Z,9.30
2023-02-13T00:36:48.790Z,9.77
2023-02-13T00:39:18.735Z,9.39
2023-02-13T00:41:46.248Z,9.41
2023-02-13T00:44:13.062Z,9.64
2023-02-13T00:46:43.006Z,9.78
2023-02-13T00:49:09.708Z,9.78
2023-02-13T00:51:36.651Z,9.36
2023-02-13T00:54:06.582Z,9.34
2023-02-13T00:56:34.547Z,9.39
2023-02-13T00:59:04.381Z,9.14
2023-02-13T01:01:31.254Z,9.36
2023-02-13T01:03:58.372Z,9.62
2023-02-13T01:06:25.828Z,9.99
2023-02-13T01:08:52.940Z,9.67
2023-02-13T01:11:20.553Z,9.23
2023-02-13T01:13:48.372Z,9.02
2023-02-13T01:16:21.003Z,9.66
2023-02-13T01:18:52.414Z,9.68
2023-02-13T01:24:06.475Z,10.03
2023-02-13T01:26:33.126Z,9.64
2023-02-13T01:29:00.421Z,9.76
2023-02-13T01:31:27.773Z,9.18
2023-02-13T01:33:58.001Z,9.29
2023-02-13T01:36:25.544Z,10.02
2023-02-13T01:38:57.216Z,9.53
2023-02-13T01:41:25.983Z,9.56
2023-02-13T01:44:00.940Z,9.19
2023-02-13T01:46:36.327Z,9.18
2023-02-13T01:49:18.970Z,9.02
2023-02-13T01:51:50.461Z,9.44
2023-02-13T01:54:34.583Z,8.98
2023-02-13T01:57:08.675Z,9.00
2023-02-13T01:59:45.900Z,8.95
2023-02-13T02:02:16.775Z,8.89
2023-02-13T02:04:48.885Z,8.78
2023-02-13T02:07:27.544Z,8.61
2023-02-13T02:10:01.565Z,8.57
2023-02-13T02:12:32.955Z,9.79
2023-02-13T02:15:07.813Z,8.59
2023-02-13T02:21:59.333Z,8.38
2023-02-13T02:24:39.168Z,9.78
2023-02-13T02:27:18.767Z,8.57
2023-02-13T02:30:06.167Z,9.72
2023-02-13T02:33:00.036Z,8.50
2023-02-13T02:35:54.768Z,8.93
2023-02-13T02:38:46.424Z,8.43
2023-02-13T02:41:41.777Z,8.86
2023-02-13T02:44:18.198Z,8.51
2023-02-13T02:47:11.739Z,8.54
2023-02-13T02:50:02.393Z,8.47
2023-02-13T02:52:47.047Z,8.46
2023-02-13T02:55:32.713Z,8.35
2023-02-13T02:58:35.039Z,8.77
2023-02-13T03:01:24.218Z,8.78
2023-02-13T03:04:09.361Z,8.42
2023-02-13T03:06:43.515Z,8.35
2023-02-13T03:09:34.337Z,9.45
2023-02-13T03:12:24.149Z,8.42
2023-02-13T03:14:50.647Z,8.28
2023-02-13T03:17:37.893Z,8.20
2023-02-13T03:20:42.017Z,9.37
2023-02-13T03:23:11.340Z,9.47
2023-02-13T03:25:54.587Z,9.40
2023-02-13T03:29:01.638Z,8.66
2023-02-13T03:31:42.133Z,8.63
2023-02-13T03:34:22.099Z,8.19
2023-02-13T03:37:39.747Z,8.08
2023-02-13T03:40:16.524Z,8.05
2023-02-13T03:42:52.797Z,8.48
2023-02-13T03:45:42.564Z,8.34
2023-02-13T03:48:30.337Z,8.94
2023-02-13T03:50:59.478Z,8.00
2023-02-13T03:53:31.541Z,8.26
2023-02-13T03:56:19.291Z,8.34
2023-02-13T03:59:10.421Z,8.16
2023-02-13T04:01:39.079Z,7.81
2023-02-13T04:04:09.639Z,8.94
2023-02-13T04:07:04.030Z,8.13
2023-02-13T04:09:32.328Z,8.20
2023-02-13T04:12:10.436Z,8.17
2023-02-13T04:14:43.917Z,8.09
2023-02-13T04:17:22.762Z,8.38
2023-02-13T04:19:49.319Z,7.57
2023-02-13T04:22:15.758Z,7.71
2023-02-13T04:24:42.194Z,7.64
2023-02-13T04:27:13.166Z,7.26
2023-02-13T04:29:39.676Z,7.58
2023-02-13T04:32:06.224Z,7.99
2023-02-13T04:34:32.744Z,6.95
2023-02-13T04:36:59.176Z,7.49
2023-02-13T04:39:25.608Z,7.18
2023-02-13T04:41:52.017Z,6.84
2023-02-13T04:44:18.412Z,7.88
2023-02-13T04:46:54.323Z,7.13
2023-02-13T04:49:21.186Z,6.72
2023-02-13T04:51:47.603Z,6.46
2023-02-13T04:54:14.065Z,6.71
2023-02-13T04:56:40.559Z,7.67
2023-02-13T04:59:07.030Z,7.67
2023-02-13T05:01:33.589Z,6.76
2023-02-13T05:04:00.275Z,7.46
2023-02-13T05:06:27.042Z,6.69
2023-02-13T05:08:53.810Z,7.04
2023-02-13T05:11:20.336Z,6.70
2023-02-13T05:13:46.766Z,7.13
2023-02-13T05:16:13.296Z,7.44
2023-02-13T05:18:40.007Z,6.61
2023-02-13T05:21:24.961Z,7.08
2023-02-13T05:24:10.263Z,7.42
2023-02-13T05:26:36.817Z,6.92
2023-02-13T05:29:23.041Z,6.53
2023-02-13T05:31:54.608Z,7.31
2023-02-13T05:34:22.098Z,7.40
2023-02-13T05:36:48.861Z,7.19
2023-02-13T05:39:15.886Z,6.38
2023-02-13T05:41:46.148Z,6.86
2023-02-13T05:44:13.794Z,6.15
2023-02-13T05:46:42.321Z,5.26
2023-02-13T05:49:10.812Z,6.47
2023-02-13T05:51:37.283Z,6.56
2023-02-13T05:54:03.992Z,6.83
2023-02-13T05:56:30.674Z,6.99
2023-02-13T05:58:57.689Z,7.03
2023-02-13T06:01:24.803Z,6.85
2023-02-13T06:03:51.399Z,6.78
2023-02-13T06:06:18.153Z,6.95
2023-02-13T06:08:44.683Z,5.91
2023-02-13T06:11:11.494Z,6.19
2023-02-13T06:13:53.144Z,6.07
2023-02-13T06:16:22.856Z,6.50
2023-02-13T06:18:49.442Z,6.09
2023-02-13T06:21:16.106Z,6.85
2023-02-13T06:23:42.894Z,6.45
2023-02-13T06:26:09.797Z,6.58
2023-02-13T06:28:36.654Z,7.06
2023-02-13T06:31:03.488Z,6.45
2023-02-13T06:33:30.456Z,5.56
2023-02-13T06:35:57.280Z,5.51
2023-02-13T06:38:25.145Z,5.98
2023-02-13T06:40:54.217Z,6.31
2023-02-13T06:43:20.652Z,6.12
2023-02-13T06:45:47.223Z,6.69
2023-02-13T06:48:19.552Z,6.67
2023-02-13T06:50:46.077Z,6.70
2023-02-13T06:53:12.492Z,6.86
2023-02-13T06:55:41.855Z,6.44
2023-02-13T06:58:08.450Z,6.67
2023-02-13T07:00:35.049Z,6.06
2023-02-13T07:03:04.005Z,6.99
2023-02-13T07:05:30.684Z,6.96
2023-02-13T07:07:57.407Z,6.75
2023-02-13T07:10:24.223Z,7.03
2023-02-13T07:13:00.263Z,6.89
2023-02-13T07:15:32.312Z,7.10
2023-02-13T07:18:03.173Z,7.21
2023-02-13T07:20:29.851Z,7.32
2023-02-13T07:23:00.642Z,7.40
2023-02-13T07:25:27.762Z,7.09
2023-02-13T07:27:54.216Z,7.84
2023-02-13T07:30:20.714Z,7.29
2023-02-13T07:32:47.088Z,7.45
2023-02-13T07:35:13.544Z,8.14
2023-02-13T07:37:39.930Z,6.78
2023-02-13T07:40:07.208Z,7.36
2023-02-13T07:42:38.925Z,7.38
2023-02-13T07:45:08.371Z,7.49
2023-02-13T07:47:35.064Z,8.37
2023-02-13T07:50:02.797Z,7.74
2023-02-13T07:52:39.310Z,8.42
2023-02-13T07:55:06.496Z,7.26
2023-02-13T07:57:33.525Z,8.19
2023-02-13T08:00:01.634Z,8.61
2023-02-13T08:02:31.244Z,8.06
2023-02-13T08:04:57.912Z,7.67
2023-02-13T08:07:24.327Z,8.76
2023-02-13T08:10:10.674Z,8.68
2023-02-13T08:12:37.129Z,7.94
2023-02-13T08:15:04.240Z,8.95
2023-02-13T08:17:30.777Z,8.20
2023-02-13T08:19:57.339Z,8.12
2023-02-13T08:22:24.322Z,9.06
2023-02-13T08:24:51.010Z,9.05
2023-02-13T08:27:17.461Z,9.18
2023-02-13T08:29:44.082Z,7.98
2023-02-13T08:32:13.819Z,9.15
2023-02-13T08:34:43.105Z,7.78
2023-02-13T08:37:10.218Z,7.90
2023-02-13T08:39:36.770Z,8.14
2023-02-13T08:42:15.793Z,8.92
2023-02-13T08:44:45.121Z,8.27
2023-02-13T08:47:12.209Z,8.56
2023-02-13T08:49:38.777Z,9.45
2023-02-13T08:52:05.774Z,8.30
2023-02-13T08:54:35.999Z,8.92
2023-02-13T08:57:02.895Z,8.47
2023-02-13T08:59:32.533Z,9.35
2023-02-13T09:02:02.182Z,9.69
2023-02-13T09:04:29.494Z,8.70
2023-02-13T09:06:56.264Z,8.76
2023-02-13T09:09:23.024Z,8.84
2023-02-13T09:11:51.881Z,10.21
2023-02-13T09:14:18.432Z,10.18
2023-02-13T09:16:48.405Z,10.24
2023-02-13T09:19:14.951Z,9.16
2023-02-13T09:21:42.054Z,9.81
2023-02-13T09:24:13.785Z,9.51
2023-02-13T09:26:40.227Z,9.48
2023-02-13T09:29:06.614Z,10.80
2023-02-13T09:31:34.043Z,9.59
2023-02-13T09:34:03.507Z,10.48
2023-02-13T09:36:30.244Z,9.83
2023-02-13T09:39:03.488Z,10.36
2023-02-13T09:41:39.290Z,10.51
2023-02-13T09:44:43.729Z,10.90
2023-02-13T09:47:36.606Z,11.45
2023-02-13T09:50:28.232Z,11.42
2023-02-13T09:53:01.436Z,10.45
2023-02-13T09:55:53.881Z,11.68
2023-02-13T09:58:37.284Z,11.81
2023-02-13T10:01:06.380Z,11.04
2023-02-13T10:03:49.765Z,10.60
2023-02-13T10:06:29.462Z,11.30
2023-02-13T10:09:18.350Z,12.17
2023-02-13T10:12:18.145Z,12.07
2023-02-13T10:15:02.957Z,12.40
2023-02-13T10:17:31.965Z,12.49
2023-02-13T10:20:27.267Z,12.56
2023-02-13T10:23:19.057Z,12.41
2023-02-13T10:26:01.268Z,12.75
2023-02-13T10:28:38.073Z,12.88
2023-02-13T10:31:10.157Z,12.98
2023-02-13T10:33:46.515Z,13.02
2023-02-13T10:36:18.778Z,13.06
2023-02-13T10:38:55.546Z,13.82
2023-02-13T10:41:28.089Z,14.31
2023-02-13T10:44:06.661Z,17.69
2023-02-13T10:47:03.643Z,19.60
2023-02-13T10:49:51.606Z,20.83
2023-02-13T10:52:44.419Z,21.32
2023-02-13T10:58:54.527Z,22.27
2023-02-13T11:01:36.358Z,22.80
2023-02-13T11:04:12.253Z,23.17
2023-02-13T11:06:45.208Z,23.46
2023-02-13T11:09:13.484Z,23.68
2023-02-13T11:11:43.942Z,23.04
2023-02-13T11:14:10.378Z,23.39
2023-02-13T11:16:50.121Z,23.56
2023-02-13T11:19:24.125Z,22.87
2023-02-13T11:21:56.094Z,23.53
2023-02-13T11:24:24.892Z,23.40
2023-02-13T11:26:57.952Z,23.10
2023-02-13T11:29:31.776Z,23.14
2023-02-13T11:32:24.787Z,22.66
2023-02-13T11:34:51.850Z,22.54
2023-02-13T11:37:31.678Z,23.58
2023-02-13T11:40:01.711Z,22.53
2023-02-13T11:42:34.401Z,22.52
2023-02-13T11:45:21.613Z,23.26
2023-02-13T11:47:48.271Z,23.44
2023-02-13T11:50:26.400Z,22.34
2023-02-13T11:52:57.070Z,22.12
2023-02-13T11:55:38.137Z,22.73
2023-02-13T11:58:24.814Z,23.30
2023-02-13T12:01:09.710Z,22.86
2023-02-13T12:03:37.262Z,22.40
2023-02-13T12:06:06.558Z,23.29
2023-02-13T12:08:35.891Z,22.92
2023-02-13T12:11:09.300Z,23.40
2023-02-13T12:13:39.017Z,22.47
2023-02-13T12:16:14.103Z,23.79
2023-02-13T12:18:44.828Z,23.64
2023-02-13T12:21:30.162Z,23.23
2023-02-13T12:24:18.196Z,23.11
2023-02-13T12:26:49.929Z,23.38
2023-02-13T12:29:59.498Z,21.79
2023-02-13T12:32:44.117Z,22.34
2023-02-13T12:35:28.289Z,21.93
2023-02-13T12:38:22.384Z,22.02
2023-02-13T12:41:07.866Z,22.52
2023-02-13T12:43:47.613Z,21.77
2023-02-13T12:46:22.380Z,21.72
2023-02-13T12:49:05.267Z,21.56
2023-02-13T12:51:50.399Z,21.58
2023-02-13T12:54:52.270Z,21.35
2023-02-13T12:57:34.638Z,20.96
2023-02-13T13:00:13.318Z,21.09
2023-02-13T13:02:58.372Z,20.79
2023-02-13T13:05:50.648Z,20.31
2023-02-13T13:08:54.221Z,19.98
2023-02-13T13:11:50.899Z,19.36
2023-02-13T13:14:49.615Z,19.16
2023-02-13T13:17:47.458Z,19.02
2023-02-13T13:20:34.186Z,17.93
2023-02-13T13:23:11.580Z,17.64
2023-02-13T13:26:09.422Z,18.06
2023-02-13T13:28:49.430Z,18.24
2023-02-13T13:31:16.724Z,18.04
2023-02-13T13:33:48.861Z,17.63
2023-02-13T13:36:24.341Z,18.10
2023-02-13T13:38:55.289Z,17.55
2023-02-13T13:41:39.935Z,17.98
2023-02-13T13:44:15.924Z,17.98
2023-02-13T13:46:58.596Z,17.81
2023-02-13T13:49:37.957Z,17.52
2023-02-13T13:52:35.340Z,16.84
2023-02-13T13:55:04.320Z,17.68
2023-02-13T13:57:43.043Z,17.61
2023-02-13T14:00:11.567Z,17.47
2023-02-13T14:02:42.277Z,17.55
2023-02-13T14:05:20.370Z,17.47
2023-02-13T14:07:53.894Z,17.45
2023-02-13T14:10:41.634Z,17.53
2023-02-13T14:13:08.375Z,17.43
2023-02-13T14:15:39.494Z,17.59
2023-02-13T14:18:12.230Z,17.60
2023-02-13T14:20:50.704Z,17.48
2023-02-13T14:23:35.817Z,17.38
2023-02-13T14:26:17.576Z,17.34
2023-02-13T14:28:49.696Z,17.42
2023-02-13T14:31:37.632Z,17.31
2023-02-13T14:34:05.817Z,16.45
2023-02-13T14:36:35.402Z,17.26
2023-02-13T14:39:06.774Z,17.21
2023-02-13T14:41:49.397Z,16.19
2023-02-13T14:44:40.931Z,17.43
2023-02-13T14:47:22.382Z,17.52
2023-02-13T14:49:50.921Z,17.40
2023-02-13T14:52:19.171Z,17.55
2023-02-13T14:54:49.960Z,17.38
2023-02-13T14:57:38.557Z,17.34
2023-02-13T15:00:25.179Z,17.24
2023-02-13T15:02:56.161Z,17.31
2023-02-13T15:05:34.178Z,16.07
2023-02-13T15:08:18.968Z,17.33
2023-02-13T15:10:52.898Z,17.38
2023-02-13T15:13:28.901Z,17.47
2023-02-13T15:16:00.819Z,17.37
2023-02-13T15:18:31.807Z,17.39
2023-02-13T15:21:01.190Z,16.97
2023-02-13T15:23:33.120Z,17.41
2023-02-13T15:26:05.787Z,16.89
2023-02-13T15:28:38.597Z,16.87
2023-02-13T15:31:33.747Z,17.33
2023-02-13T15:34:01.251Z,17.14
2023-02-13T15:39:27.600Z,17.26
2023-02-13T15:42:01.027Z,17.09
2023-02-13T15:44:32.907Z,17.07
2023-02-13T15:47:17.536Z,17.10
2023-02-13T15:49:45.445Z,17.08
2023-02-13T15:52:24.617Z,16.97
2023-02-13T15:54:54.423Z,16.73
2023-02-13T15:57:23.354Z,16.71
2023-02-13T15:59:50.681Z,15.98
2023-02-13T16:02:37.393Z,16.56
2023-02-13T16:05:13.817Z,16.48
2023-02-13T16:07:51.233Z,16.28
2023-02-13T16:10:28.323Z,16.38
2023-02-13T16:12:57.828Z,15.88
2023-02-13T16:15:28.400Z,15.77
2023-02-13T16:17:56.558Z,16.15
2023-02-13T16:20:28.292Z,15.99
2023-02-13T16:23:02.739Z,15.70
2023-02-13T16:25:37.012Z,15.51
2023-02-13T16:28:05.684Z,15.48
2023-02-13T16:30:35.437Z,15.39
2023-02-13T16:33:15.356Z,15.35
2023-02-13T16:35:46.017Z,15.35
2023-02-13T16:38:27.208Z,15.22
2023-02-13T16:40:57.828Z,15.12
2023-02-13T16:43:36.663Z,15.17
2023-02-13T16:46:36.938Z,15.22
2023-02-13T16:49:17.115Z,15.19
2023-02-13T16:52:07.721Z,15.07
2023-02-13T16:54:52.519Z,15.07
2023-02-13T16:57:23.552Z,15.09
2023-02-13T16:59:52.792Z,14.68
2023-02-13T17:03:01.238Z,14.72
2023-02-13T17:05:29.170Z,14.86
2023-02-13T17:08:01.176Z,14.72
2023-02-13T17:10:33.676Z,14.74
2023-02-13T17:13:06.814Z,13.44
2023-02-13T17:15:33.404Z,14.22
2023-02-13T17:18:00.317Z,13.51
2023-02-13T17:20:29.332Z,13.32
2023-02-13T17:22:58.231Z,13.95
2023-02-13T17:25:29.834Z,13.84
2023-02-13T17:28:01.722Z,12.59
2023-02-13T17:30:32.788Z,13.45
2023-02-13T17:33:02.963Z,13.93
2023-02-13T17:35:29.517Z,13.33
2023-02-13T17:37:56.081Z,13.19
2023-02-13T17:40:25.337Z,13.15
2023-02-13T17:42:54.044Z,12.20
2023-02-13T17:45:24.260Z,12.53
2023-02-13T17:47:50.869Z,12.45
2023-02-13T17:50:17.487Z,12.97
2023-02-13T17:52:45.837Z,12.21
2023-02-13T17:55:24.596Z,12.27
2023-02-13T17:57:52.665Z,12.77
2023-02-13T18:00:23.727Z,13.15
2023-02-13T18:02:51.384Z,12.54
2023-02-13T18:05:19.285Z,12.92
2023-02-13T18:07:46.895Z,12.93
2023-02-13T18:10:18.804Z,12.79
2023-02-13T18:12:46.675Z,12.81
2023-02-13T18:15:13.864Z,12.08
2023-02-13T18:17:40.930Z,12.66
2023-02-13T18:20:11.689Z,12.78
2023-02-13T18:22:46.400Z,12.71
2023-02-13T18:25:13.401Z,12.69
2023-02-13T18:27:41.126Z,12.57
2023-02-13T18:30:08.845Z,12.48
2023-02-13T18:32:38.083Z,12.41
2023-02-13T18:35:04.697Z,12.03
2023-02-13T18:37:33.444Z,11.83
2023-02-13T18:39:59.915Z,12.21
2023-02-13T18:42:27.073Z,12.23
2023-02-13T18:44:53.488Z,11.70
2023-02-13T18:47:21.583Z,10.90
2023-02-13T18:49:48.199Z,11.74
2023-02-13T18:52:14.842Z,11.31
2023-02-13T18:54:41.184Z,10.63
2023-02-13T18:57:07.657Z,11.63
2023-02-13T18:59:34.221Z,11.70
2023-02-13T19:02:02.526Z,11.64
2023-02-13T19:04:31.259Z,11.79
2023-02-13T19:06:57.641Z,11.62
2023-02-13T19:09:24.169Z,11.53
2023-02-13T19:11:51.523Z,11.59
2023-02-13T19:14:18.177Z,11.40
2023-02-13T19:16:44.774Z,11.32
2023-02-13T19:19:11.428Z,11.49
2023-02-13T19:21:39.058Z,11.36
2023-02-13T19:24:09.011Z,11.42
2023-02-13T19:26:36.241Z,10.77
2023-02-13T19:29:04.474Z,10.63
2023-02-13T19:31:32.731Z,10.41
2023-02-13T19:34:00.584Z,10.75
2023-02-13T19:36:28.884Z,10.87
2023-02-13T19:39:02.834Z,10.65
2023-02-13T19:41:30.862Z,10.60
2023-02-13T19:43:57.406Z,10.43
2023-02-13T19:46:27.370Z,10.76
2023-02-13T19:48:55.002Z,10.45
2023-02-13T19:51:24.490Z,9.94
2023-02-13T19:53:59.004Z,9.72
2023-02-13T19:56:28.783Z,10.06
2023-02-13T19:58:56.275Z,9.97
2023-02-13T20:01:24.826Z,10.49
2023-02-13T20:03:52.174Z,10.37
2023-02-13T20:06:23.832Z,10.58
2023-02-13T20:08:51.258Z,10.60
2023-02-13T20:11:19.227Z,10.64
2023-02-13T20:13:47.226Z,9.65
2023-02-13T20:16:15.584Z,10.57
2023-02-13T20:18:43.001Z,10.31
2023-02-13T20:21:11.755Z,10.54
2023-02-13T20:23:38.163Z,10.48
2023-02-13T20:26:06.728Z,10.28
2023-02-13T20:28:33.641Z,10.11
2023-02-13T20:31:00.825Z,10.20
2023-02-13T20:33:27.577Z,9.98
2023-02-13T20:35:54.097Z,10.24
2023-02-13T20:38:20.426Z,10.24
2023-02-13T20:40:47.014Z,10.38
2023-02-13T20:43:13.504Z,10.25
2023-02-13T20:45:39.984Z,9.50
2023-02-13T20:48:06.385Z,9.68
2023-02-13T20:50:32.756Z,9.73
2023-02-13T20:52:59.150Z,8.64
2023-02-13T20:55:25.584Z,9.76
2023-02-13T20:57:51.972Z,9.62
2023-02-13T21:00:19.068Z,9.59
2023-02-13T21:02:45.461Z,9.67
2023-02-13T21:05:11.863Z,9.75
2023-02-13T21:07:40.587Z,9.90
2023-02-13T21:10:07.395Z,9.67
2023-02-13T21:12:34.831Z,9.75
2023-02-13T21:15:01.185Z,9.85
2023-02-13T21:17:27.531Z,9.76
2023-02-13T21:19:53.920Z,9.81
2023-02-13T21:22:20.281Z,9.72
2023-02-13T21:24:49.828Z,9.73
2023-02-13T21:27:16.272Z,9.55
2023-02-13T21:29:42.692Z,8.77
2023-02-13T21:32:09.742Z,9.69
2023-02-13T21:34:36.436Z,8.91
2023-02-13T21:37:03.034Z,9.73
2023-02-13T21:39:30.482Z,9.26
2023-02-13T21:41:56.885Z,8.90
2023-02-13T21:44:25.946Z,8.01
2023-02-13T21:46:52.638Z,9.25
2023-02-13T21:49:19.639Z,8.54
2023-02-13T21:51:46.881Z,8.32
2023-02-13T21:54:13.801Z,8.79
2023-02-13T21:56:42.387Z,7.94
2023-02-13T22:04:42.225Z,8.67
2023-02-13T22:07:08.667Z,8.53
2023-02-13T22:09:35.224Z,7.82
2023-02-13T22:12:01.801Z,8.99
2023-02-13T22:14:28.240Z,8.74
2023-02-13T22:16:54.795Z,8.90
2023-02-13T22:19:23.638Z,7.91
2023-02-13T22:21:50.011Z,8.63
2023-02-13T22:24:16.455Z,8.24
2023-02-13T22:26:45.218Z,8.50
2023-02-13T22:29:14.557Z,8.62
2023-02-13T22:31:41.732Z,8.58
2023-02-13T22:34:12.636Z,8.71
2023-02-13T22:36:39.437Z,7.96
2023-02-13T22:39:07.349Z,8.69
2023-02-13T22:41:33.898Z,9.01
2023-02-13T22:44:00.280Z,8.87
2023-02-13T22:46:29.186Z,8.98
2023-02-13T22:48:56.004Z,8.94
2023-02-13T22:51:29.053Z,8.89
2023-02-13T22:53:57.206Z,8.47
2023-02-13T22:56:25.149Z,8.63
2023-02-13T22:58:51.551Z,8.69
2023-02-13T23:01:21.370Z,8.79
2023-02-13T23:03:47.791Z,8.57
2023-02-13T23:06:15.341Z,8.32
2023-02-13T23:08:42.458Z,8.45
2023-02-13T23:11:35.148Z,8.55
2023-02-13T23:14:01.820Z,8.46
2023-02-13T23:16:49.265Z,7.59
2023-02-13T23:19:15.989Z,8.02
2023-02-13T23:21:42.425Z,7.96
2023-02-13T23:24:08.894Z,8.19
2023-02-13T23:26:35.241Z,8.14
2023-02-13T23:29:01.648Z,7.63
2023-02-13T23:31:28.064Z,6.86
2023-02-13T23:33:54.477Z,8.30
2023-02-13T23:36:20.889Z,8.39
2023-02-13T23:38:47.344Z,7.60
2023-02-13T23:41:13.701Z,8.17
2023-02-13T23:43:40.313Z,8.25
2023-02-13T23:46:07.479Z,8.25
2023-02-13T23:48:34.566Z,8.16
2023-02-13T23:51:01.518Z,7.95
2023-02-13T23:53:28.160Z,7.27
2023-02-13T23:55:55.009Z,8.00
2023-02-13T23:58:21.502Z,7.87
